sensor_id;sensor_type;location;lat;lon;timestamp;pressure;altitude;pressure_sealevel;temperature;humidity
25420;BME280;13354;48.174;11.566;2024-03-02T00:02:07;94673.00;;;7.42;98.56
25420;BME280;13354;48.174;11.566;2024-03-02T00:04:33;94673.22;;;7.40;98.35
25420;BME280;13354;48.174;11.566;2024-03-02T00:06:59;94673.00;;;7.42;98.53
25420;BME280;13354;48.174;11.566;2024-03-02T00:09:24;94667.53;;;7.43;98.80
25420;BME280;13354;48.174;11.566;2024-03-02T00:11:50;94670.78;;;7.45;98.66
25420;BME280;13354;48.174;11.566;2024-03-02T00:14:16;94663.91;;;7.44;98.38
25420;BME280;13354;48.174;11.566;2024-03-02T00:16:42;94665.09;;;7.42;98.34
25420;BME280;13354;48.174;11.566;2024-03-02T00:19:08;94662.91;;;7.45;98.46
25420;BME280;13354;48.174;11.566;2024-03-02T00:21:34;94659.22;;;7.40;98.07
25420;BME280;13354;48.174;11.566;2024-03-02T00:24:01;94662.50;;;7.48;97.54
25420;BME280;13354;48.174;11.566;2024-03-02T00:26:31;94661.69;;;7.48;97.46
25420;BME280;13354;48.174;11.566;2024-03-02T00:28:56;94657.00;;;7.43;97.40
25420;BME280;13354;48.174;11.566;2024-03-02T00:31:22;94658.63;;;7.38;97.64
25420;BME280;13354;48.174;11.566;2024-03-02T00:33:48;94652.72;;;7.29;98.10
25420;BME280;13354;48.174;11.566;2024-03-02T00:36:15;94649.47;;;7.27;98.69
25420;BME280;13354;48.174;11.566;2024-03-02T00:38:51;94653.09;;;7.26;98.51
25420;BME280;13354;48.174;11.566;2024-03-02T00:41:31;94649.00;;;7.17;99.27
25420;BME280;13354;48.174;11.566;2024-03-02T00:46:23;94647.38;;;7.16;99.11
25420;BME280;13354;48.174;11.566;2024-03-02T00:48:59;94644.97;;;7.21;98.69
25420;BME280;13354;48.174;11.566;2024-03-02T00:51:28;94640.03;;;7.05;98.67
25420;BME280;13354;48.174;11.566;2024-03-02T00:53:55;94643.06;;;7.01;99.38
25420;BME280;13354;48.174;11.566;2024-03-02T00:56:22;94639.63;;;7.01;100.00
25420;BME280;13354;48.174;11.566;2024-03-02T00:58:48;94635.56;;;6.98;100.00
25420;BME280;13354;48.174;11.566;2024-03-02T01:01:13;94634.31;;;6.94;100.00
25420;BME280;13354;48.174;11.566;2024-03-02T01:03:39;94640.97;;;6.90;100.00
25420;BME280;13354;48.174;11.566;2024-03-02T01:06:06;94643.41;;;6.92;100.00
25420;BME280;13354;48.174;11.566;2024-03-02T01:08:33;94644.03;;;6.94;100.00
25420;BME280;13354;48.174;11.566;2024-03-02T01:10:58;94645.28;;;6.98;100.00
25420;BME280;13354;48.174;11.566;2024-03-02T01:13:23;94651.31;;;6.92;100.00
25420;BME280;13354;48.174;11.566;2024-03-02T01:15:49;94657.41;;;6.92;100.00
25420;BME280;13354;48.174;11.566;2024-03-02T01:18:14;94653.94;;;6.92;100.00
25420;BME280;13354;48.174;11.566;2024-03-02T01:20:40;94647.31;;;7.02;100.00
25420;BME280;13354;48.174;11.566;2024-03-02T01:23:05;94646.09;;;6.98;99.98
25420;BME280;13354;48.174;11.566;2024-03-02T01:25:30;94654.22;;;7.10;99.60
25420;BME280;13354;48.174;11.566;2024-03-02T01:27:56;94643.50;;;7.05;99.27
25420;BME280;13354;48.174;11.566;2024-03-02T01:30:21;94647.97;;;7.11;99.06
25420;BME280;13354;48.174;11.566;2024-03-02T01:32:47;94643.88;;;7.02;98.68
25420;BME280;13354;48.174;11.566;2024-03-02T01:35:12;94649.34;;;7.00;98.45
25420;BME280;13354;48.174;11.566;2024-03-02T01:37:37;94649.75;;;7.04;98.17
25420;BME280;13354;48.174;11.566;2024-03-02T01:40:03;94650.56;;;7.05;98.33
25420;BME280;13354;48.174;11.566;2024-03-02T01:42:37;94642.47;;;7.06;98.10
25420;BME280;13354;48.174;11.566;2024-03-02T01:45:04;94644.47;;;6.97;98.05
25420;BME280;13354;48.174;11.566;2024-03-02T01:47:30;94650.53;;;6.98;98.48
25420;BME280;13354;48.174;11.566;2024-03-02T01:49:55;94650.75;;;6.96;98.03
25420;BME280;13354;48.174;11.566;2024-03-02T01:52:21;94644.75;;;7.16;97.99
25420;BME280;13354;48.174;11.566;2024-03-02T01:54:46;94642.84;;;7.03;97.60
25420;BME280;13354;48.174;11.566;2024-03-02T01:57:11;94643.56;;;7.18;97.05
25420;BME280;13354;48.174;11.566;2024-03-02T01:59:37;94644.53;;;7.11;97.00
25420;BME280;13354;48.174;11.566;2024-03-02T02:02:02;94627.94;;;7.17;97.08
25420;BME280;13354;48.174;11.566;2024-03-02T02:04:28;94630.97;;;7.14;96.67
25420;BME280;13354;48.174;11.566;2024-03-02T02:06:54;94628.13;;;7.09;96.74
25420;BME280;13354;48.174;11.566;2024-03-02T02:09:19;94621.00;;;7.02;97.19
25420;BME280;13354;48.174;11.566;2024-03-02T02:11:44;94614.50;;;6.98;98.16
25420;BME280;13354;48.174;11.566;2024-03-02T02:14:10;94621.97;;;6.95;98.41
25420;BME280;13354;48.174;11.566;2024-03-02T02:16:36;94614.50;;;6.98;98.88
25420;BME280;13354;48.174;11.566;2024-03-02T02:19:02;94613.91;;;6.96;98.93
25420;BME280;13354;48.174;11.566;2024-03-02T02:21:28;94614.28;;;6.93;99.31
25420;BME280;13354;48.174;11.566;2024-03-02T02:23:53;94607.59;;;6.91;99.51
25420;BME280;13354;48.174;11.566;2024-03-02T02:26:19;94608.59;;;6.90;99.44
25420;BME280;13354;48.174;11.566;2024-03-02T02:28:44;94618.13;;;6.91;99.79
25420;BME280;13354;48.174;11.566;2024-03-02T02:31:13;94604.16;;;6.90;99.50
25420;BME280;13354;48.174;11.566;2024-03-02T02:33:42;94613.44;;;6.86;99.06
25420;BME280;13354;48.174;11.566;2024-03-02T02:36:08;94611.84;;;6.92;98.63
25420;BME280;13354;48.174;11.566;2024-03-02T02:38:44;94611.84;;;6.92;98.11
25420;BME280;13354;48.174;11.566;2024-03-02T02:41:09;94614.63;;;6.84;98.29
25420;BME280;13354;48.174;11.566;2024-03-02T02:43:35;94615.66;;;6.83;98.33
25420;BME280;13354;48.174;11.566;2024-03-02T02:46:00;94616.25;;;6.85;97.99
25420;BME280;13354;48.174;11.566;2024-03-02T02:48:26;94616.66;;;6.82;97.85
25420;BME280;13354;48.174;11.566;2024-03-02T02:50:51;94606.34;;;6.87;98.50
25420;BME280;13354;48.174;11.566;2024-03-02T02:53:17;94608.56;;;6.83;98.60
25420;BME280;13354;48.174;11.566;2024-03-02T02:55:42;94610.19;;;6.84;98.10
25420;BME280;13354;48.174;11.566;2024-03-02T02:58:12;94610.81;;;6.86;98.22
25420;BME280;13354;48.174;11.566;2024-03-02T03:00:37;94615.88;;;6.88;98.22
25420;BME280;13354;48.174;11.566;2024-03-02T03:03:02;94619.31;;;6.88;98.33
25420;BME280;13354;48.174;11.566;2024-03-02T03:05:28;94619.94;;;6.90;98.66
25420;BME280;13354;48.174;11.566;2024-03-02T03:07:54;94618.31;;;6.89;98.63
25420;BME280;13354;48.174;11.566;2024-03-02T03:10:19;94625.41;;;6.89;98.67
25420;BME280;13354;48.174;11.566;2024-03-02T03:12:47;94628.22;;;6.87;98.94
25420;BME280;13354;48.174;11.566;2024-03-02T03:15:13;94624.81;;;6.93;98.84
25420;BME280;13354;48.174;11.566;2024-03-02T03:17:39;94624.84;;;7.00;99.10
25420;BME280;13354;48.174;11.566;2024-03-02T03:20:06;94626.63;;;6.93;98.80
25420;BME280;13354;48.174;11.566;2024-03-02T03:22:35;94619.34;;;6.95;98.18
25420;BME280;13354;48.174;11.566;2024-03-02T03:25:01;94625.00;;;6.92;98.35
25420;BME280;13354;48.174;11.566;2024-03-02T03:27:26;94625.59;;;6.87;98.50
25420;BME280;13354;48.174;11.566;2024-03-02T03:29:52;94625.16;;;6.84;98.87
25420;BME280;13354;48.174;11.566;2024-03-02T03:32:17;94621.94;;;6.82;99.29
25420;BME280;13354;48.174;11.566;2024-03-02T03:34:43;94621.75;;;6.90;99.33
25420;BME280;13354;48.174;11.566;2024-03-02T03:37:08;94612.63;;;6.86;99.29
25420;BME280;13354;48.174;11.566;2024-03-02T03:39:34;94623.13;;;6.79;99.87
25420;BME280;13354;48.174;11.566;2024-03-02T03:42:01;94615.06;;;6.87;99.70
25420;BME280;13354;48.174;11.566;2024-03-02T03:44:26;94616.88;;;6.87;98.98
25420;BME280;13354;48.174;11.566;2024-03-02T03:46:51;94617.09;;;6.85;98.77
25420;BME280;13354;48.174;11.566;2024-03-02T03:49:17;94619.47;;;6.80;98.94
25420;BME280;13354;48.174;11.566;2024-03-02T03:51:42;94612.13;;;6.69;99.34
25420;BME280;13354;48.174;11.566;2024-03-02T03:54:08;94618.63;;;6.73;99.36
25420;BME280;13354;48.174;11.566;2024-03-02T03:56:33;94615.56;;;6.69;99.61
25420;BME280;13354;48.174;11.566;2024-03-02T03:58:58;94609.50;;;6.69;100.00
25420;BME280;13354;48.174;11.566;2024-03-02T04:01:25;94616.78;;;6.67;100.00
25420;BME280;13354;48.174;11.566;2024-03-02T04:03:50;94610.69;;;6.66;100.00
25420;BME280;13354;48.174;11.566;2024-03-02T04:06:15;94616.09;;;6.58;100.00
25420;BME280;13354;48.174;11.566;2024-03-02T04:08:42;94619.31;;;6.53;100.00
25420;BME280;13354;48.174;11.566;2024-03-02T04:11:08;94623.28;;;6.71;100.00
25420;BME280;13354;48.174;11.566;2024-03-02T04:13:33;94628.16;;;6.74;100.00
25420;BME280;13354;48.174;11.566;2024-03-02T04:15:59;94630.63;;;6.82;100.00
25420;BME280;13354;48.174;11.566;2024-03-02T04:18:24;94632.88;;;6.85;100.00
25420;BME280;13354;48.174;11.566;2024-03-02T04:20:50;94637.50;;;6.83;100.00
25420;BME280;13354;48.174;11.566;2024-03-02T04:23:15;94638.91;;;6.79;100.00
25420;BME280;13354;48.174;11.566;2024-03-02T04:25:40;94643.41;;;6.85;100.00
25420;BME280;13354;48.174;11.566;2024-03-02T04:28:06;94642.22;;;6.94;100.00
25420;BME280;13354;48.174;11.566;2024-03-02T04:30:31;94645.00;;;6.86;100.00
25420;BME280;13354;48.174;11.566;2024-03-02T04:32:56;94639.78;;;6.93;100.00
25420;BME280;13354;48.174;11.566;2024-03-02T04:35:22;94645.59;;;6.82;100.00
25420;BME280;13354;48.174;11.566;2024-03-02T04:37:47;94648.22;;;6.82;100.00
25420;BME280;13354;48.174;11.566;2024-03-02T04:40:13;94648.03;;;6.83;100.00
25420;BME280;13354;48.174;11.566;2024-03-02T04:42:38;94655.28;;;6.81;100.00
25420;BME280;13354;48.174;11.566;2024-03-02T04:45:04;94662.56;;;6.79;100.00
25420;BME280;13354;48.174;11.566;2024-03-02T04:47:29;94661.13;;;6.76;100.00
25420;BME280;13354;48.174;11.566;2024-03-02T04:49:54;94658.50;;;6.76;100.00
25420;BME280;13354;48.174;11.566;2024-03-02T04:52:20;94661.94;;;6.77;100.00
25420;BME280;13354;48.174;11.566;2024-03-02T04:54:45;94665.00;;;6.81;100.00
25420;BME280;13354;48.174;11.566;2024-03-02T04:57:33;94667.25;;;6.84;100.00
25420;BME280;13354;48.174;11.566;2024-03-02T04:59:59;94671.31;;;6.86;100.00
25420;BME280;13354;48.174;11.566;2024-03-02T05:02:24;94666.28;;;6.91;100.00
25420;BME280;13354;48.174;11.566;2024-03-02T05:04:49;94676.47;;;7.01;100.00
25420;BME280;13354;48.174;11.566;2024-03-02T05:07:15;94671.59;;;6.98;100.00
25420;BME280;13354;48.174;11.566;2024-03-02T05:09:41;94674.00;;;6.99;100.00
25420;BME280;13354;48.174;11.566;2024-03-02T05:12:07;94677.06;;;6.96;100.00
25420;BME280;13354;48.174;11.566;2024-03-02T05:14:38;94673.63;;;7.02;100.00
25420;BME280;13354;48.174;11.566;2024-03-02T05:17:04;94671.00;;;7.02;100.00
25420;BME280;13354;48.174;11.566;2024-03-02T05:19:29;94683.50;;;6.94;100.00
25420;BME280;13354;48.174;11.566;2024-03-02T05:21:54;94675.22;;;6.97;100.00
25420;BME280;13354;48.174;11.566;2024-03-02T05:24:20;94678.03;;;6.89;100.00
25420;BME280;13354;48.174;11.566;2024-03-02T05:26:45;94677.38;;;6.87;100.00
25420;BME280;13354;48.174;11.566;2024-03-02T05:29:10;94672.75;;;6.89;100.00
25420;BME280;13354;48.174;11.566;2024-03-02T05:31:36;94675.56;;;6.87;100.00
25420;BME280;13354;48.174;11.566;2024-03-02T05:34:01;94672.81;;;7.02;100.00
25420;BME280;13354;48.174;11.566;2024-03-02T05:36:26;94679.47;;;6.98;100.00
25420;BME280;13354;48.174;11.566;2024-03-02T05:38:52;94676.47;;;7.01;100.00
25420;BME280;13354;48.174;11.566;2024-03-02T05:41:17;94673.44;;;7.04;100.00
25420;BME280;13354;48.174;11.566;2024-03-02T05:43:43;94677.66;;;6.98;100.00
25420;BME280;13354;48.174;11.566;2024-03-02T05:46:08;94687.47;;;7.11;100.00
25420;BME280;13354;48.174;11.566;2024-03-02T05:48:33;94692.03;;;7.02;100.00
25420;BME280;13354;48.174;11.566;2024-03-02T05:50:59;94681.13;;;7.06;100.00
25420;BME280;13354;48.174;11.566;2024-03-02T05:53:25;94674.72;;;7.21;100.00
25420;BME280;13354;48.174;11.566;2024-03-02T05:55:50;94684.56;;;7.06;100.00
25420;BME280;13354;48.174;11.566;2024-03-02T05:58:20;94676.63;;;6.99;100.00
25420;BME280;13354;48.174;11.566;2024-03-02T06:01:04;94682.31;;;7.03;100.00
25420;BME280;13354;48.174;11.566;2024-03-02T06:03:30;94685.59;;;7.05;100.00
25420;BME280;13354;48.174;11.566;2024-03-02T06:05:56;94680.53;;;7.10;100.00
25420;BME280;13354;48.174;11.566;2024-03-02T06:08:21;94684.22;;;7.16;100.00
25420;BME280;13354;48.174;11.566;2024-03-02T06:10:46;94688.84;;;7.07;100.00
25420;BME280;13354;48.174;11.566;2024-03-02T06:13:12;94684.44;;;7.14;100.00
25420;BME280;13354;48.174;11.566;2024-03-02T06:15:37;94696.38;;;7.17;100.00
25420;BME280;13354;48.174;11.566;2024-03-02T06:18:03;94686.44;;;7.12;100.00
25420;BME280;13354;48.174;11.566;2024-03-02T06:20:28;94690.03;;;7.05;100.00
25420;BME280;13354;48.174;11.566;2024-03-02T06:22:56;94689.25;;;7.04;100.00
25420;BME280;13354;48.174;11.566;2024-03-02T06:25:21;94689.25;;;7.04;100.00
25420;BME280;13354;48.174;11.566;2024-03-02T06:27:47;94689.19;;;6.97;100.00
25420;BME280;13354;48.174;11.566;2024-03-02T06:30:12;94684.53;;;6.93;100.00
25420;BME280;13354;48.174;11.566;2024-03-02T06:32:38;94683.88;;;6.91;100.00
25420;BME280;13354;48.174;11.566;2024-03-02T06:35:04;94682.44;;;6.88;100.00
25420;BME280;13354;48.174;11.566;2024-03-02T06:37:30;94687.91;;;6.87;100.00
25420;BME280;13354;48.174;11.566;2024-03-02T06:39:56;94681.22;;;6.84;100.00
25420;BME280;13354;48.174;11.566;2024-03-02T06:42:21;94685.50;;;6.85;100.00
25420;BME280;13354;48.174;11.566;2024-03-02T06:44:46;94687.91;;;6.87;100.00
25420;BME280;13354;48.174;11.566;2024-03-02T06:47:12;94679.22;;;6.86;100.00
25420;BME280;13354;48.174;11.566;2024-03-02T06:49:37;94682.84;;;6.85;100.00
25420;BME280;13354;48.174;11.566;2024-03-02T06:52:03;94686.47;;;6.84;100.00
25420;BME280;13354;48.174;11.566;2024-03-02T06:54:28;94685.66;;;6.84;100.00
25420;BME280;13354;48.174;11.566;2024-03-02T06:56:53;94687.47;;;6.83;100.00
25420;BME280;13354;48.174;11.566;2024-03-02T06:59:19;94686.91;;;6.88;100.00
25420;BME280;13354;48.174;11.566;2024-03-02T07:01:44;94682.03;;;6.85;100.00
25420;BME280;13354;48.174;11.566;2024-03-02T07:04:09;94687.47;;;6.83;100.00
25420;BME280;13354;48.174;11.566;2024-03-02T07:06:35;94683.03;;;6.84;100.00
25420;BME280;13354;48.174;11.566;2024-03-02T07:09:00;94683.03;;;6.84;100.00
25420;BME280;13354;48.174;11.566;2024-03-02T07:11:25;94683.06;;;6.90;100.00
25420;BME280;13354;48.174;11.566;2024-03-02T07:13:51;94681.47;;;6.89;100.00
25420;BME280;13354;48.174;11.566;2024-03-02T07:16:16;94682.06;;;6.91;100.00
25420;BME280;13354;48.174;11.566;2024-03-02T07:18:53;94685.31;;;6.93;100.00
25420;BME280;13354;48.174;11.566;2024-03-02T07:21:20;94688.19;;;6.98;100.00
25420;BME280;13354;48.174;11.566;2024-03-02T07:23:47;94685.81;;;7.04;100.00
25420;BME280;13354;48.174;11.566;2024-03-02T07:26:13;94686.66;;;7.11;100.00
25420;BME280;13354;48.174;11.566;2024-03-02T07:28:40;94691.91;;;7.11;100.00
25420;BME280;13354;48.174;11.566;2024-03-02T07:31:06;94689.91;;;7.19;100.00
25420;BME280;13354;48.174;11.566;2024-03-02T07:33:31;94693.34;;;7.20;100.00
25420;BME280;13354;48.174;11.566;2024-03-02T07:35:57;94692.34;;;7.21;100.00
25420;BME280;13354;48.174;11.566;2024-03-02T07:38:25;94695.81;;;7.28;100.00
25420;BME280;13354;48.174;11.566;2024-03-02T07:40:50;94699.91;;;7.31;100.00
25420;BME280;13354;48.174;11.566;2024-03-02T07:43:19;94699.72;;;7.39;100.00
25420;BME280;13354;48.174;11.566;2024-03-02T07:45:46;94703.00;;;7.41;100.00
25420;BME280;13354;48.174;11.566;2024-03-02T07:48:11;94695.72;;;7.49;100.00
25420;BME280;13354;48.174;11.566;2024-03-02T07:50:37;94698.84;;;7.66;100.00
25420;BME280;13354;48.174;11.566;2024-03-02T07:53:04;94707.34;;;7.68;100.00
25420;BME280;13354;48.174;11.566;2024-03-02T07:55:30;94707.41;;;7.88;98.96
25420;BME280;13354;48.174;11.566;2024-03-02T07:57:56;94704.97;;;7.93;97.87
25420;BME280;13354;48.174;11.566;2024-03-02T08:00:23;94693.47;;;8.08;96.58
25420;BME280;13354;48.174;11.566;2024-03-02T08:02:49;94696.69;;;8.16;96.84
25420;BME280;13354;48.174;11.566;2024-03-02T08:05:16;94704.41;;;8.24;96.23
25420;BME280;13354;48.174;11.566;2024-03-02T08:07:41;94704.22;;;8.26;96.70
25420;BME280;13354;48.174;11.566;2024-03-02T08:10:07;94705.28;;;8.38;94.58
25420;BME280;13354;48.174;11.566;2024-03-02T08:12:32;94704.06;;;8.41;94.87
25420;BME280;13354;48.174;11.566;2024-03-02T08:14:58;94702.25;;;8.41;92.21
25420;BME280;13354;48.174;11.566;2024-03-02T08:17:23;94701.63;;;8.46;89.52
25420;BME280;13354;48.174;11.566;2024-03-02T08:19:48;94704.66;;;8.43;88.44
25420;BME280;13354;48.174;11.566;2024-03-02T08:22:15;94708.28;;;8.35;89.41
25420;BME280;13354;48.174;11.566;2024-03-02T08:24:40;94713.00;;;8.40;89.65
25420;BME280;13354;48.174;11.566;2024-03-02T08:27:06;94718.88;;;8.42;88.44
25420;BME280;13354;48.174;11.566;2024-03-02T08:29:31;94714.00;;;8.52;88.14
25420;BME280;13354;48.174;11.566;2024-03-02T08:31:57;94724.38;;;8.47;87.17
25420;BME280;13354;48.174;11.566;2024-03-02T08:34:22;94709.16;;;8.62;87.06
25420;BME280;13354;48.174;11.566;2024-03-02T08:36:48;94710.78;;;8.77;87.05
25420;BME280;13354;48.174;11.566;2024-03-02T08:39:14;94709.94;;;8.83;86.86
25420;BME280;13354;48.174;11.566;2024-03-02T08:41:41;94710.72;;;9.03;85.40
25420;BME280;13354;48.174;11.566;2024-03-02T08:44:07;94705.25;;;9.05;84.13
25420;BME280;13354;48.174;11.566;2024-03-02T08:46:32;94705.06;;;9.00;83.77
25420;BME280;13354;48.174;11.566;2024-03-02T08:48:58;94710.09;;;9.08;84.74
25420;BME280;13354;48.174;11.566;2024-03-02T08:51:23;94719.41;;;9.30;85.18
25420;BME280;13354;48.174;11.566;2024-03-02T08:53:48;94707.78;;;9.38;85.12
25420;BME280;13354;48.174;11.566;2024-03-02T08:56:14;94708.56;;;9.58;85.24
25420;BME280;13354;48.174;11.566;2024-03-02T08:58:41;94705.50;;;9.55;84.75
25420;BME280;13354;48.174;11.566;2024-03-02T09:01:06;94713.19;;;9.63;84.65
25420;BME280;13354;48.174;11.566;2024-03-02T09:03:33;94710.66;;;9.88;84.58
25420;BME280;13354;48.174;11.566;2024-03-02T09:05:59;94712.09;;;10.22;85.04
25420;BME280;13354;48.174;11.566;2024-03-02T09:08:24;94714.81;;;10.72;82.23
25420;BME280;13354;48.174;11.566;2024-03-02T09:10:49;94709.53;;;11.52;78.58
25420;BME280;13354;48.174;11.566;2024-03-02T09:13:15;94712.59;;;12.23;74.31
25420;BME280;13354;48.174;11.566;2024-03-02T09:15:40;94707.72;;;12.73;71.67
25420;BME280;13354;48.174;11.566;2024-03-02T09:18:06;94701.66;;;13.20;69.15
25420;BME280;13354;48.174;11.566;2024-03-02T09:20:32;94707.41;;;13.64;66.40
25420;BME280;13354;48.174;11.566;2024-03-02T09:22:57;94703.31;;;14.42;64.10
25420;BME280;13354;48.174;11.566;2024-03-02T09:25:22;94708.22;;;14.62;61.76
25420;BME280;13354;48.174;11.566;2024-03-02T09:27:48;94706.63;;;14.49;61.08
25420;BME280;13354;48.174;11.566;2024-03-02T09:30:13;94710.66;;;14.97;60.94
25420;BME280;13354;48.174;11.566;2024-03-02T09:32:39;94720.31;;;14.53;61.02
25420;BME280;13354;48.174;11.566;2024-03-02T09:35:04;94719.28;;;14.42;61.22
25420;BME280;13354;48.174;11.566;2024-03-02T09:37:30;94708.00;;;14.97;60.70
25420;BME280;13354;48.174;11.566;2024-03-02T09:39:56;94699.84;;;15.42;59.73
25420;BME280;13354;48.174;11.566;2024-03-02T09:42:21;94700.56;;;15.55;58.57
25420;BME280;13354;48.174;11.566;2024-03-02T09:44:48;94693.34;;;15.16;57.83
25420;BME280;13354;48.174;11.566;2024-03-02T09:47:13;94695.78;;;15.57;58.55
25420;BME280;13354;48.174;11.566;2024-03-02T09:49:39;94692.38;;;16.05;58.42
25420;BME280;13354;48.174;11.566;2024-03-02T09:52:05;94695.94;;;15.89;54.83
25420;BME280;13354;48.174;11.566;2024-03-02T09:54:32;94692.94;;;15.63;55.74
25420;BME280;13354;48.174;11.566;2024-03-02T09:56:57;94697.25;;;15.48;55.08
25420;BME280;13354;48.174;11.566;2024-03-02T09:59:23;94702.34;;;15.10;55.79
25420;BME280;13354;48.174;11.566;2024-03-02T10:02:02;94694.94;;;15.34;56.26
25420;BME280;13354;48.174;11.566;2024-03-02T10:04:28;94699.78;;;15.37;56.55
25420;BME280;13354;48.174;11.566;2024-03-02T10:07:14;94694.06;;;15.29;56.23
25420;BME280;13354;48.174;11.566;2024-03-02T10:09:41;94687.16;;;15.11;55.83
25420;BME280;13354;48.174;11.566;2024-03-02T10:12:08;94688.00;;;15.16;56.33
25420;BME280;13354;48.174;11.566;2024-03-02T10:14:34;94691.56;;;15.61;55.91
25420;BME280;13354;48.174;11.566;2024-03-02T10:17:07;94684.56;;;15.55;55.92
25420;BME280;13354;48.174;11.566;2024-03-02T10:19:34;94683.84;;;15.64;55.16
25420;BME280;13354;48.174;11.566;2024-03-02T10:22:08;94684.56;;;15.55;55.86
25420;BME280;13354;48.174;11.566;2024-03-02T10:24:44;94683.31;;;15.62;55.01
25420;BME280;13354;48.174;11.566;2024-03-02T10:27:15;94683.97;;;15.91;54.59
25420;BME280;13354;48.174;11.566;2024-03-02T10:29:41;94684.31;;;16.00;54.74
25420;BME280;13354;48.174;11.566;2024-03-02T10:32:10;94683.75;;;16.20;54.17
25420;BME280;13354;48.174;11.566;2024-03-02T10:34:37;94678.25;;;15.83;54.50
25420;BME280;13354;48.174;11.566;2024-03-02T10:37:03;94670.94;;;15.95;54.67
25420;BME280;13354;48.174;11.566;2024-03-02T10:39:28;94676.47;;;16.15;53.28
25420;BME280;13354;48.174;11.566;2024-03-02T10:41:55;94664.84;;;16.00;53.29
25420;BME280;13354;48.174;11.566;2024-03-02T10:44:22;94666.47;;;16.28;53.53
25420;BME280;13354;48.174;11.566;2024-03-02T10:46:49;94655.16;;;16.48;53.79
25420;BME280;13354;48.174;11.566;2024-03-02T10:49:15;94656.41;;;16.67;53.08
25420;BME280;13354;48.174;11.566;2024-03-02T10:51:40;94639.88;;;17.07;52.96
25420;BME280;13354;48.174;11.566;2024-03-02T10:54:05;94638.56;;;17.10;51.04
25420;BME280;13354;48.174;11.566;2024-03-02T10:59:09;94632.41;;;17.57;50.29
25420;BME280;13354;48.174;11.566;2024-03-02T11:01:39;94628.38;;;17.49;49.50
25420;BME280;13354;48.174;11.566;2024-03-02T11:04:08;94633.28;;;17.68;48.86
25420;BME280;13354;48.174;11.566;2024-03-02T11:06:34;94634.06;;;17.73;49.15
25420;BME280;13354;48.174;11.566;2024-03-02T11:09:06;94627.47;;;17.96;49.37
25420;BME280;13354;48.174;11.566;2024-03-02T11:11:36;94622.72;;;18.19;48.92
25420;BME280;13354;48.174;11.566;2024-03-02T11:14:04;94616.59;;;18.54;48.92
25420;BME280;13354;48.174;11.566;2024-03-02T11:16:34;94607.75;;;18.58;47.99
25420;BME280;13354;48.174;11.566;2024-03-02T11:19:08;94608.56;;;18.49;47.69
25420;BME280;13354;48.174;11.566;2024-03-02T11:21:35;94602.69;;;18.57;47.38
25420;BME280;13354;48.174;11.566;2024-03-02T11:26:46;94596.78;;;18.65;46.28
25420;BME280;13354;48.174;11.566;2024-03-02T11:32:05;94587.94;;;18.80;47.23
25420;BME280;13354;48.174;11.566;2024-03-02T11:34:34;94586.00;;;19.16;46.44
25420;BME280;13354;48.174;11.566;2024-03-02T11:37:03;94580.53;;;19.47;46.01
25420;BME280;13354;48.174;11.566;2024-03-02T11:39:29;94575.69;;;19.54;46.55
25420;BME280;13354;48.174;11.566;2024-03-02T11:41:56;94577.06;;;19.46;47.41
25420;BME280;13354;48.174;11.566;2024-03-02T11:44:28;94573.53;;;19.51;47.52
25420;BME280;13354;48.174;11.566;2024-03-02T11:47:00;94566.44;;;19.81;47.51
25420;BME280;13354;48.174;11.566;2024-03-02T11:49:45;94567.28;;;19.76;46.93
25420;BME280;13354;48.174;11.566;2024-03-02T11:52:15;94555.94;;;19.24;46.06
25420;BME280;13354;48.174;11.566;2024-03-02T11:54:43;94548.78;;;18.94;47.29
25420;BME280;13354;48.174;11.566;2024-03-02T11:57:12;94549.88;;;18.52;47.95
25420;BME280;13354;48.174;11.566;2024-03-02T11:59:38;94544.78;;;18.61;48.91
25420;BME280;13354;48.174;11.566;2024-03-02T12:02:04;94549.34;;;18.50;48.90
25420;BME280;13354;48.174;11.566;2024-03-02T12:04:30;94552.00;;;18.40;49.89
25420;BME280;13354;48.174;11.566;2024-03-02T12:06:59;94539.16;;;18.37;50.08
25420;BME280;13354;48.174;11.566;2024-03-02T12:09:28;94541.31;;;18.30;49.52
25420;BME280;13354;48.174;11.566;2024-03-02T12:12:10;94534.34;;;18.34;49.30
25420;BME280;13354;48.174;11.566;2024-03-02T12:14:36;94532.19;;;18.21;49.45
25420;BME280;13354;48.174;11.566;2024-03-02T12:17:03;94526.03;;;18.41;50.02
25420;BME280;13354;48.174;11.566;2024-03-02T12:19:29;94528.97;;;18.80;48.66
25420;BME280;13354;48.174;11.566;2024-03-02T12:21:58;94532.19;;;18.56;48.12
25420;BME280;13354;48.174;11.566;2024-03-02T12:24:26;94521.19;;;18.48;48.85
25420;BME280;13354;48.174;11.566;2024-03-02T12:26:52;94525.75;;;18.57;48.36
25420;BME280;13354;48.174;11.566;2024-03-02T12:29:21;94512.88;;;18.54;48.28
25420;BME280;13354;48.174;11.566;2024-03-02T12:31:48;94513.97;;;18.64;48.48
25420;BME280;13354;48.174;11.566;2024-03-02T12:34:15;94501.66;;;18.52;48.47
25420;BME280;13354;48.174;11.566;2024-03-02T12:36:41;94502.16;;;18.65;48.18
25420;BME280;13354;48.174;11.566;2024-03-02T12:39:08;94495.41;;;18.88;47.80
25420;BME280;13354;48.174;11.566;2024-03-02T12:41:36;94490.63;;;18.79;47.54
25420;BME280;13354;48.174;11.566;2024-03-02T12:44:02;94487.63;;;18.96;48.15
25420;BME280;13354;48.174;11.566;2024-03-02T12:46:28;94483.09;;;18.87;48.02
25420;BME280;13354;48.174;11.566;2024-03-02T12:48:53;94485.22;;;18.85;48.73
25420;BME280;13354;48.174;11.566;2024-03-02T12:51:19;94477.38;;;19.03;48.75
25420;BME280;13354;48.174;11.566;2024-03-02T12:53:44;94477.69;;;19.02;47.84
25420;BME280;13354;48.174;11.566;2024-03-02T12:56:10;94475.53;;;18.99;47.68
25420;BME280;13354;48.174;11.566;2024-03-02T12:58:39;94470.19;;;18.99;47.91
25420;BME280;13354;48.174;11.566;2024-03-02T13:01:09;94472.56;;;19.05;47.88